sensor_id;sensor_type;location;lat;lon;timestamp;temperature;humidity
11142;DHT22;5625;50.122;19.864;2024-03-07T00:01:21;3.80;99.90
11142;DHT22;5625;50.122;19.864;2024-03-07T00:03:51;3.80;99.90
11142;DHT22;5625;50.122;19.864;2024-03-07T00:06:19;3.70;99.90
11142;DHT22;5625;50.122;19.864;2024-03-07T00:08:48;3.70;99.90
11142;DHT22;5625;50.122;19.864;2024-03-07T00:11:16;3.70;99.90
11142;DHT22;5625;50.122;19.864;2024-03-07T00:13:45;3.70;99.90
11142;DHT22;5625;50.122;19.864;2024-03-07T00:16:14;3.70;99.90
11142;DHT22;5625;50.122;19.864;2024-03-07T00:18:42;3.70;99.90
11142;DHT22;5625;50.122;19.864;2024-03-07T00:21:11;3.70;99.90
11142;DHT22;5625;50.122;19.864;2024-03-07T00:23:39;3.70;99.90
11142;DHT22;5625;50.122;19.864;2024-03-07T00:26:07;3.70;99.90
11142;DHT22;5625;50.122;19.864;2024-03-07T00:28:36;3.70;99.90
11142;DHT22;5625;50.122;19.864;2024-03-07T00:31:06;3.70;99.90
11142;DHT22;5625;50.122;19.864;2024-03-07T00:33:35;3.70;99.90
11142;DHT22;5625;50.122;19.864;2024-03-07T00:36:25;3.70;99.90
11142;DHT22;5625;50.122;19.864;2024-03-07T00:38:53;3.70;99.90
11142;DHT22;5625;50.122;19.864;2024-03-07T00:41:21;3.70;99.90
11142;DHT22;5625;50.122;19.864;2024-03-07T00:43:49;3.70;99.90
11142;DHT22;5625;50.122;19.864;2024-03-07T00:46:18;3.70;99.90
11142;DHT22;5625;50.122;19.864;2024-03-07T00:48:46;3.70;99.90
11142;DHT22;5625;50.122;19.864;2024-03-07T00:51:14;3.70;99.90
11142;DHT22;5625;50.122;19.864;2024-03-07T00:53:44;3.70;99.90
11142;DHT22;5625;50.122;19.864;2024-03-07T00:56:14;3.70;99.90
11142;DHT22;5625;50.122;19.864;2024-03-07T00:58:42;3.70;99.90
11142;DHT22;5625;50.122;19.864;2024-03-07T01:01:10;3.70;99.90
11142;DHT22;5625;50.122;19.864;2024-03-07T01:03:39;3.70;99.90
11142;DHT22;5625;50.122;19.864;2024-03-07T01:06:07;3.70;99.90
11142;DHT22;5625;50.122;19.864;2024-03-07T01:08:36;3.70;99.90
11142;DHT22;5625;50.122;19.864;2024-03-07T01:11:06;3.70;99.90
11142;DHT22;5625;50.122;19.864;2024-03-07T01:13:36;3.70;99.90
11142;DHT22;5625;50.122;19.864;2024-03-07T01:16:05;3.70;99.90
11142;DHT22;5625;50.122;19.864;2024-03-07T01:18:34;3.60;99.90
11142;DHT22;5625;50.122;19.864;2024-03-07T01:21:03;3.70;99.90
11142;DHT22;5625;50.122;19.864;2024-03-07T01:23:31;3.60;99.90
11142;DHT22;5625;50.122;19.864;2024-03-07T01:26:00;3.70;99.90
11142;DHT22;5625;50.122;19.864;2024-03-07T01:28:30;3.70;99.90
11142;DHT22;5625;50.122;19.864;2024-03-07T01:30:58;3.70;99.90
11142;DHT22;5625;50.122;19.864;2024-03-07T01:33:26;3.70;99.90
11142;DHT22;5625;50.122;19.864;2024-03-07T01:35:55;3.60;99.90
11142;DHT22;5625;50.122;19.864;2024-03-07T01:38:23;3.60;99.90
11142;DHT22;5625;50.122;19.864;2024-03-07T01:40:52;3.60;99.90
11142;DHT22;5625;50.122;19.864;2024-03-07T01:43:21;3.60;99.90
11142;DHT22;5625;50.122;19.864;2024-03-07T01:45:54;3.60;99.90
11142;DHT22;5625;50.122;19.864;2024-03-07T01:48:26;3.60;99.90
11142;DHT22;5625;50.122;19.864;2024-03-07T01:50:56;3.60;99.90
11142;DHT22;5625;50.122;19.864;2024-03-07T01:53:25;3.60;99.90
11142;DHT22;5625;50.122;19.864;2024-03-07T01:55:55;3.60;99.90
11142;DHT22;5625;50.122;19.864;2024-03-07T01:58:24;3.60;99.90
11142;DHT22;5625;50.122;19.864;2024-03-07T02:00:54;3.60;99.90
11142;DHT22;5625;50.122;19.864;2024-03-07T02:03:22;3.60;99.90
11142;DHT22;5625;50.122;19.864;2024-03-07T02:05:50;3.50;99.90
11142;DHT22;5625;50.122;19.864;2024-03-07T02:08:19;3.50;99.90
11142;DHT22;5625;50.122;19.864;2024-03-07T02:10:47;3.50;99.90
11142;DHT22;5625;50.122;19.864;2024-03-07T02:13:18;3.50;99.90
11142;DHT22;5625;50.122;19.864;2024-03-07T02:15:46;3.60;99.90
11142;DHT22;5625;50.122;19.864;2024-03-07T02:18:16;3.50;99.90
11142;DHT22;5625;50.122;19.864;2024-03-07T02:20:48;3.50;99.90
11142;DHT22;5625;50.122;19.864;2024-03-07T02:23:16;3.50;99.90
11142;DHT22;5625;50.122;19.864;2024-03-07T02:25:45;3.50;99.90
11142;DHT22;5625;50.122;19.864;2024-03-07T02:28:13;3.50;99.90
11142;DHT22;5625;50.122;19.864;2024-03-07T02:30:41;3.50;99.90
11142;DHT22;5625;50.122;19.864;2024-03-07T02:33:09;3.50;99.90
11142;DHT22;5625;50.122;19.864;2024-03-07T02:35:39;3.50;99.90
11142;DHT22;5625;50.122;19.864;2024-03-07T02:38:10;3.40;99.90
11142;DHT22;5625;50.122;19.864;2024-03-07T02:40:38;3.40;99.90
11142;DHT22;5625;50.122;19.864;2024-03-07T02:43:06;3.40;99.90
11142;DHT22;5625;50.122;19.864;2024-03-07T02:45:34;3.40;99.90
11142;DHT22;5625;50.122;19.864;2024-03-07T02:48:03;3.40;99.90
11142;DHT22;5625;50.122;19.864;2024-03-07T02:50:32;3.30;99.90
11142;DHT22;5625;50.122;19.864;2024-03-07T02:53:01;3.30;99.90
11142;DHT22;5625;50.122;19.864;2024-03-07T02:55:32;3.30;99.90
11142;DHT22;5625;50.122;19.864;2024-03-07T02:58:00;3.30;99.90
11142;DHT22;5625;50.122;19.864;2024-03-07T03:00:28;3.30;99.90
11142;DHT22;5625;50.122;19.864;2024-03-07T03:02:57;3.30;99.90
11142;DHT22;5625;50.122;19.864;2024-03-07T03:05:25;3.20;99.90
11142;DHT22;5625;50.122;19.864;2024-03-07T03:07:56;3.20;99.90
11142;DHT22;5625;50.122;19.864;2024-03-07T03:10:25;3.20;99.90
11142;DHT22;5625;50.122;19.864;2024-03-07T03:12:58;3.10;99.90
11142;DHT22;5625;50.122;19.864;2024-03-07T03:15:30;3.20;99.90
11142;DHT22;5625;50.122;19.864;2024-03-07T03:17:58;3.20;99.90
11142;DHT22;5625;50.122;19.864;2024-03-07T03:20:28;3.20;99.90
11142;DHT22;5625;50.122;19.864;2024-03-07T03:23:02;3.20;99.90
11142;DHT22;5625;50.122;19.864;2024-03-07T03:25:33;3.20;99.90
11142;DHT22;5625;50.122;19.864;2024-03-07T03:28:05;3.20;99.90
11142;DHT22;5625;50.122;19.864;2024-03-07T03:30:37;3.10;99.90
11142;DHT22;5625;50.122;19.864;2024-03-07T03:33:06;3.10;99.90
11142;DHT22;5625;50.122;19.864;2024-03-07T03:35:34;3.10;99.90
11142;DHT22;5625;50.122;19.864;2024-03-07T03:38:03;3.10;99.90
11142;DHT22;5625;50.122;19.864;2024-03-07T03:40:31;3.10;99.90
11142;DHT22;5625;50.122;19.864;2024-03-07T03:43:00;3.10;99.90
11142;DHT22;5625;50.122;19.864;2024-03-07T03:45:30;3.10;99.90
11142;DHT22;5625;50.122;19.864;2024-03-07T03:48:01;3.10;99.90
11142;DHT22;5625;50.122;19.864;2024-03-07T03:50:30;3.10;99.90
11142;DHT22;5625;50.122;19.864;2024-03-07T03:52:58;3.10;99.90
11142;DHT22;5625;50.122;19.864;2024-03-07T03:55:28;3.10;99.90
11142;DHT22;5625;50.122;19.864;2024-03-07T03:57:56;3.10;99.90
11142;DHT22;5625;50.122;19.864;2024-03-07T04:00:25;3.10;99.90
11142;DHT22;5625;50.122;19.864;2024-03-07T04:02:54;3.00;99.90
11142;DHT22;5625;50.122;19.864;2024-03-07T04:05:22;3.00;99.90
11142;DHT22;5625;50.122;19.864;2024-03-07T04:07:51;3.00;99.90
11142;DHT22;5625;50.122;19.864;2024-03-07T04:10:20;2.90;99.90
11142;DHT22;5625;50.122;19.864;2024-03-07T04:12:49;2.90;99.90
11142;DHT22;5625;50.122;19.864;2024-03-07T04:15:18;2.90;99.90
11142;DHT22;5625;50.122;19.864;2024-03-07T04:17:46;2.90;99.90
11142;DHT22;5625;50.122;19.864;2024-03-07T04:20:17;2.90;99.90
11142;DHT22;5625;50.122;19.864;2024-03-07T04:22:46;2.90;99.90
11142;DHT22;5625;50.122;19.864;2024-03-07T04:25:16;2.90;99.90
11142;DHT22;5625;50.122;19.864;2024-03-07T04:27:45;2.90;99.90
11142;DHT22;5625;50.122;19.864;2024-03-07T04:30:13;2.80;99.90
11142;DHT22;5625;50.122;19.864;2024-03-07T04:32:44;2.80;99.90
11142;DHT22;5625;50.122;19.864;2024-03-07T04:35:12;2.80;99.90
11142;DHT22;5625;50.122;19.864;2024-03-07T04:37:46;2.80;99.90
11142;DHT22;5625;50.122;19.864;2024-03-07T04:40:14;2.80;99.90
11142;DHT22;5625;50.122;19.864;2024-03-07T04:42:46;2.80;99.90
11142;DHT22;5625;50.122;19.864;2024-03-07T04:45:18;2.80;99.90
11142;DHT22;5625;50.122;19.864;2024-03-07T04:47:48;2.80;99.90
11142;DHT22;5625;50.122;19.864;2024-03-07T04:50:17;2.80;99.90
11142;DHT22;5625;50.122;19.864;2024-03-07T04:52:47;2.80;99.90
11142;DHT22;5625;50.122;19.864;2024-03-07T04:55:17;2.80;99.90
11142;DHT22;5625;50.122;19.864;2024-03-07T04:57:45;2.70;99.90
11142;DHT22;5625;50.122;19.864;2024-03-07T05:00:14;2.70;99.90
11142;DHT22;5625;50.122;19.864;2024-03-07T05:02:48;2.70;99.90
11142;DHT22;5625;50.122;19.864;2024-03-07T05:05:18;2.70;99.90
11142;DHT22;5625;50.122;19.864;2024-03-07T05:07:51;2.70;99.90
11142;DHT22;5625;50.122;19.864;2024-03-07T05:10:20;2.70;99.90
11142;DHT22;5625;50.122;19.864;2024-03-07T05:12:48;2.70;99.90
11142;DHT22;5625;50.122;19.864;2024-03-07T05:15:25;2.70;99.90
11142;DHT22;5625;50.122;19.864;2024-03-07T05:17:55;2.70;99.90
11142;DHT22;5625;50.122;19.864;2024-03-07T05:20:35;2.70;99.90
11142;DHT22;5625;50.122;19.864;2024-03-07T05:23:05;2.70;99.90
11142;DHT22;5625;50.122;19.864;2024-03-07T05:25:33;2.70;99.90
11142;DHT22;5625;50.122;19.864;2024-03-07T05:28:02;2.70;99.90
11142;DHT22;5625;50.122;19.864;2024-03-07T05:30:30;2.60;99.90
11142;DHT22;5625;50.122;19.864;2024-03-07T05:33:00;2.60;99.90
11142;DHT22;5625;50.122;19.864;2024-03-07T05:35:29;2.60;99.90
11142;DHT22;5625;50.122;19.864;2024-03-07T05:37:58;2.60;99.90
11142;DHT22;5625;50.122;19.864;2024-03-07T05:40:28;2.60;99.90
11142;DHT22;5625;50.122;19.864;2024-03-07T05:42:56;2.60;99.90
11142;DHT22;5625;50.122;19.864;2024-03-07T05:45:24;2.60;99.90
11142;DHT22;5625;50.122;19.864;2024-03-07T05:47:52;2.60;99.90
11142;DHT22;5625;50.122;19.864;2024-03-07T05:50:20;2.50;99.90
11142;DHT22;5625;50.122;19.864;2024-03-07T05:52:48;2.50;99.90
11142;DHT22;5625;50.122;19.864;2024-03-07T05:55:17;2.50;99.90
11142;DHT22;5625;50.122;19.864;2024-03-07T05:57:47;2.50;99.90
11142;DHT22;5625;50.122;19.864;2024-03-07T06:00:16;2.50;99.90
11142;DHT22;5625;50.122;19.864;2024-03-07T06:02:55;2.50;99.90
11142;DHT22;5625;50.122;19.864;2024-03-07T06:05:23;2.50;99.90
11142;DHT22;5625;50.122;19.864;2024-03-07T06:07:51;2.60;99.90
11142;DHT22;5625;50.122;19.864;2024-03-07T06:10:20;2.50;99.90
11142;DHT22;5625;50.122;19.864;2024-03-07T06:12:52;2.50;99.90
11142;DHT22;5625;50.122;19.864;2024-03-07T06:15:36;2.50;99.90
11142;DHT22;5625;50.122;19.864;2024-03-07T06:18:05;2.50;99.90
11142;DHT22;5625;50.122;19.864;2024-03-07T06:20:35;2.50;99.90
11142;DHT22;5625;50.122;19.864;2024-03-07T06:23:03;2.40;99.90
11142;DHT22;5625;50.122;19.864;2024-03-07T06:25:32;2.40;99.90
11142;DHT22;5625;50.122;19.864;2024-03-07T06:28:06;2.40;99.90
11142;DHT22;5625;50.122;19.864;2024-03-07T06:30:39;2.40;99.90
11142;DHT22;5625;50.122;19.864;2024-03-07T06:33:08;2.40;99.90
11142;DHT22;5625;50.122;19.864;2024-03-07T06:35:37;2.40;99.90
11142;DHT22;5625;50.122;19.864;2024-03-07T06:38:06;2.40;99.90
11142;DHT22;5625;50.122;19.864;2024-03-07T06:40:35;2.40;99.90
11142;DHT22;5625;50.122;19.864;2024-03-07T06:43:05;2.40;99.90
11142;DHT22;5625;50.122;19.864;2024-03-07T06:45:34;2.40;99.90
11142;DHT22;5625;50.122;19.864;2024-03-07T06:48:04;2.40;99.90
11142;DHT22;5625;50.122;19.864;2024-03-07T06:50:35;2.40;99.90
11142;DHT22;5625;50.122;19.864;2024-03-07T06:53:05;2.40;99.90
11142;DHT22;5625;50.122;19.864;2024-03-07T06:55:35;2.30;99.90
11142;DHT22;5625;50.122;19.864;2024-03-07T06:58:03;2.30;99.90
11142;DHT22;5625;50.122;19.864;2024-03-07T07:00:34;2.40;99.90
11142;DHT22;5625;50.122;19.864;2024-03-07T07:03:05;2.40;99.90
11142;DHT22;5625;50.122;19.864;2024-03-07T07:05:34;2.30;99.90
11142;DHT22;5625;50.122;19.864;2024-03-07T07:08:03;2.30;99.90
11142;DHT22;5625;50.122;19.864;2024-03-07T07:10:34;2.30;99.90
11142;DHT22;5625;50.122;19.864;2024-03-07T07:13:03;2.30;99.90
11142;DHT22;5625;50.122;19.864;2024-03-07T07:15:34;2.30;99.90
11142;DHT22;5625;50.122;19.864;2024-03-07T07:18:05;2.30;99.90
11142;DHT22;5625;50.122;19.864;2024-03-07T07:20:34;2.40;99.90
11142;DHT22;5625;50.122;19.864;2024-03-07T07:23:03;2.40;99.90
11142;DHT22;5625;50.122;19.864;2024-03-07T07:25:31;2.30;99.90
11142;DHT22;5625;50.122;19.864;2024-03-07T07:28:00;2.40;99.90
11142;DHT22;5625;50.122;19.864;2024-03-07T07:30:33;2.30;99.90
11142;DHT22;5625;50.122;19.864;2024-03-07T07:33:02;2.40;99.90
11142;DHT22;5625;50.122;19.864;2024-03-07T07:35:30;2.40;99.90
11142;DHT22;5625;50.122;19.864;2024-03-07T07:38:00;2.40;99.90
11142;DHT22;5625;50.122;19.864;2024-03-07T07:40:28;2.30;99.90
11142;DHT22;5625;50.122;19.864;2024-03-07T07:43:00;2.30;99.90
11142;DHT22;5625;50.122;19.864;2024-03-07T07:45:30;2.30;99.90
11142;DHT22;5625;50.122;19.864;2024-03-07T07:48:00;2.30;99.90
11142;DHT22;5625;50.122;19.864;2024-03-07T07:50:29;2.30;99.90
11142;DHT22;5625;50.122;19.864;2024-03-07T07:52:59;2.30;99.90
11142;DHT22;5625;50.122;19.864;2024-03-07T07:55:28;2.20;99.90
11142;DHT22;5625;50.122;19.864;2024-03-07T07:57:58;2.20;99.90
11142;DHT22;5625;50.122;19.864;2024-03-07T08:00:27;2.20;99.90
11142;DHT22;5625;50.122;19.864;2024-03-07T08:02:58;2.30;99.90
11142;DHT22;5625;50.122;19.864;2024-03-07T08:05:29;2.30;99.90
11142;DHT22;5625;50.122;19.864;2024-03-07T08:07:59;2.30;99.90
11142;DHT22;5625;50.122;19.864;2024-03-07T08:10:29;2.30;99.90
11142;DHT22;5625;50.122;19.864;2024-03-07T08:12:59;2.20;99.90
11142;DHT22;5625;50.122;19.864;2024-03-07T08:15:29;2.20;99.90
11142;DHT22;5625;50.122;19.864;2024-03-07T08:17:58;2.20;99.90
11142;DHT22;5625;50.122;19.864;2024-03-07T08:20:29;2.20;99.90
11142;DHT22;5625;50.122;19.864;2024-03-07T08:22:58;2.20;99.90
11142;DHT22;5625;50.122;19.864;2024-03-07T08:25:27;2.30;99.90
11142;DHT22;5625;50.122;19.864;2024-03-07T08:27:58;2.30;99.90
11142;DHT22;5625;50.122;19.864;2024-03-07T08:30:26;2.30;99.90
11142;DHT22;5625;50.122;19.864;2024-03-07T08:32:56;2.30;99.90
11142;DHT22;5625;50.122;19.864;2024-03-07T08:35:25;2.30;99.90
11142;DHT22;5625;50.122;19.864;2024-03-07T08:37:55;2.30;99.90
11142;DHT22;5625;50.122;19.864;2024-03-07T08:40:25;2.30;99.90
11142;DHT22;5625;50.122;19.864;2024-03-07T08:42:58;2.30;99.90
11142;DHT22;5625;50.122;19.864;2024-03-07T08:45:27;2.30;99.90
11142;DHT22;5625;50.122;19.864;2024-03-07T08:47:57;2.30;99.90
11142;DHT22;5625;50.122;19.864;2024-03-07T08:50:26;2.30;99.90
11142;DHT22;5625;50.122;19.864;2024-03-07T08:52:57;2.30;99.90
11142;DHT22;5625;50.122;19.864;2024-03-07T08:55:25;2.20;99.90
11142;DHT22;5625;50.122;19.864;2024-03-07T08:57:55;2.20;99.90
11142;DHT22;5625;50.122;19.864;2024-03-07T09:00:23;2.30;99.90
11142;DHT22;5625;50.122;19.864;2024-03-07T09:02:54;2.30;99.90
11142;DHT22;5625;50.122;19.864;2024-03-07T09:05:26;2.20;99.90
11142;DHT22;5625;50.122;19.864;2024-03-07T09:07:55;2.30;99.90
11142;DHT22;5625;50.122;19.864;2024-03-07T09:10:24;2.30;99.90
11142;DHT22;5625;50.122;19.864;2024-03-07T09:12:56;2.20;99.90
11142;DHT22;5625;50.122;19.864;2024-03-07T09:15:24;2.30;99.90
11142;DHT22;5625;50.122;19.864;2024-03-07T09:17:54;2.20;99.90
11142;DHT22;5625;50.122;19.864;2024-03-07T09:20:22;2.30;99.90
11142;DHT22;5625;50.122;19.864;2024-03-07T09:22:51;2.30;99.90
11142;DHT22;5625;50.122;19.864;2024-03-07T09:25:23;2.30;99.90
11142;DHT22;5625;50.122;19.864;2024-03-07T09:27:53;2.20;99.90
11142;DHT22;5625;50.122;19.864;2024-03-07T09:30:22;2.20;99.90
11142;DHT22;5625;50.122;19.864;2024-03-07T09:32:54;2.30;99.90
11142;DHT22;5625;50.122;19.864;2024-03-07T09:35:23;2.30;99.90
11142;DHT22;5625;50.122;19.864;2024-03-07T09:37:51;2.30;99.90
11142;DHT22;5625;50.122;19.864;2024-03-07T09:40:20;2.30;99.90
11142;DHT22;5625;50.122;19.864;2024-03-07T09:42:54;2.40;99.90
11142;DHT22;5625;50.122;19.864;2024-03-07T09:45:29;2.30;99.90
11142;DHT22;5625;50.122;19.864;2024-03-07T09:47:58;2.40;99.90
11142;DHT22;5625;50.122;19.864;2024-03-07T09:50:29;2.40;99.90
11142;DHT22;5625;50.122;19.864;2024-03-07T09:52:58;2.40;99.90
11142;DHT22;5625;50.122;19.864;2024-03-07T09:55:27;2.40;99.90
11142;DHT22;5625;50.122;19.864;2024-03-07T09:57:58;2.40;99.90
11142;DHT22;5625;50.122;19.864;2024-03-07T10:00:28;2.40;99.90
11142;DHT22;5625;50.122;19.864;2024-03-07T10:02:59;2.40;99.90
11142;DHT22;5625;50.122;19.864;2024-03-07T10:05:30;2.40;99.90
11142;DHT22;5625;50.122;19.864;2024-03-07T10:07:59;2.40;99.90
11142;DHT22;5625;50.122;19.864;2024-03-07T10:10:28;2.40;99.90
11142;DHT22;5625;50.122;19.864;2024-03-07T10:12:59;2.40;99.90
11142;DHT22;5625;50.122;19.864;2024-03-07T10:15:28;2.40;99.90
11142;DHT22;5625;50.122;19.864;2024-03-07T10:17:57;2.40;99.90
11142;DHT22;5625;50.122;19.864;2024-03-07T10:20:26;2.40;99.90
11142;DHT22;5625;50.122;19.864;2024-03-07T10:22:55;2.40;99.90
11142;DHT22;5625;50.122;19.864;2024-03-07T10:25:24;2.50;99.90
11142;DHT22;5625;50.122;19.864;2024-03-07T10:27:55;2.50;99.90
11142;DHT22;5625;50.122;19.864;2024-03-07T10:30:26;2.50;99.90
11142;DHT22;5625;50.122;19.864;2024-03-07T10:32:56;2.50;99.90
11142;DHT22;5625;50.122;19.864;2024-03-07T10:35:28;2.60;99.90
11142;DHT22;5625;50.122;19.864;2024-03-07T10:37:59;2.50;99.90
11142;DHT22;5625;50.122;19.864;2024-03-07T10:40:28;2.60;99.90
11142;DHT22;5625;50.122;19.864;2024-03-07T10:42:58;2.60;99.90
11142;DHT22;5625;50.122;19.864;2024-03-07T10:45:33;2.60;99.90
11142;DHT22;5625;50.122;19.864;2024-03-07T10:48:03;2.60;99.90
11142;DHT22;5625;50.122;19.864;2024-03-07T10:50:43;2.60;99.90
11142;DHT22;5625;50.122;19.864;2024-03-07T10:53:19;2.60;99.90
11142;DHT22;5625;50.122;19.864;2024-03-07T10:58:46;2.60;99.90
11142;DHT22;5625;50.122;19.864;2024-03-07T11:01:19;2.60;99.90
11142;DHT22;5625;50.122;19.864;2024-03-07T11:03:49;2.60;99.90
11142;DHT22;5625;50.122;19.864;2024-03-07T11:06:20;2.60;99.90
11142;DHT22;5625;50.122;19.864;2024-03-07T11:08:48;2.60;99.90
11142;DHT22;5625;50.122;19.864;2024-03-07T11:11:17;2.60;99.90
11142;DHT22;5625;50.122;19.864;2024-03-07T11:13:46;2.60;99.90
11142;DHT22;5625;50.122;19.864;2024-03-07T11:16:18;2.60;99.90
11142;DHT22;5625;50.122;19.864;2024-03-07T11:21:55;2.60;99.90
11142;DHT22;5625;50.122;19.864;2024-03-07T11:24:24;2.60;99.90
11142;DHT22;5625;50.122;19.864;2024-03-07T11:26:53;2.60;99.90
11142;DHT22;5625;50.122;19.864;2024-03-07T11:29:42;2.60;99.90
11142;DHT22;5625;50.122;19.864;2024-03-07T11:32:12;2.70;99.90
11142;DHT22;5625;50.122;19.864;2024-03-07T11:34:42;2.60;99.90
11142;DHT22;5625;50.122;19.864;2024-03-07T11:37:17;2.70;99.90
11142;DHT22;5625;50.122;19.864;2024-03-07T11:39:50;2.70;99.90
11142;DHT22;5625;50.122;19.864;2024-03-07T11:42:24;2.80;99.90
11142;DHT22;5625;50.122;19.864;2024-03-07T11:44:58;2.70;99.90
11142;DHT22;5625;50.122;19.864;2024-03-07T11:47:37;2.80;99.90
11142;DHT22;5625;50.122;19.864;2024-03-07T11:50:07;2.70;99.90
11142;DHT22;5625;50.122;19.864;2024-03-07T11:52:39;2.70;96.40
11142;DHT22;5625;50.122;19.864;2024-03-07T11:55:09;2.80;94.10
11142;DHT22;5625;50.122;19.864;2024-03-07T11:57:39;2.80;99.90
11142;DHT22;5625;50.122;19.864;2024-03-07T12:00:12;2.80;99.90
11142;DHT22;5625;50.122;19.864;2024-03-07T12:02:43;2.80;99.90
11142;DHT22;5625;50.122;19.864;2024-03-07T12:05:11;2.80;99.90
11142;DHT22;5625;50.122;19.864;2024-03-07T12:07:43;2.80;99.90
11142;DHT22;5625;50.122;19.864;2024-03-07T12:10:12;2.80;95.50
11142;DHT22;5625;50.122;19.864;2024-03-07T12:12:40;2.80;86.80
11142;DHT22;5625;50.122;19.864;2024-03-07T12:15:11;2.80;93.80
11142;DHT22;5625;50.122;19.864;2024-03-07T12:17:49;2.80;99.20
11142;DHT22;5625;50.122;19.864;2024-03-07T12:20:18;2.90;99.90
11142;DHT22;5625;50.122;19.864;2024-03-07T12:23:00;2.90;99.90
11142;DHT22;5625;50.122;19.864;2024-03-07T12:25:30;2.90;73.60
11142;DHT22;5625;50.122;19.864;2024-03-07T12:28:05;2.90;62.50
11142;DHT22;5625;50.122;19.864;2024-03-07T12:30:48;3.00;48.00
11142;DHT22;5625;50.122;19.864;2024-03-07T12:33:19;3.00;30.60
11142;DHT22;5625;50.122;19.864;2024-03-07T12:35:51;3.00;23.60
11142;DHT22;5625;50.122;19.864;2024-03-07T12:38:20;3.00;46.90
11142;DHT22;5625;50.122;19.864;2024-03-07T12:41:02;3.00;47.10
11142;DHT22;5625;50.122;19.864;2024-03-07T12:43:33;3.00;16.00
11142;DHT22;5625;50.122;19.864;2024-03-07T12:46:01;3.10;15.50
11142;DHT22;5625;50.122;19.864;2024-03-07T12:48:32;3.00;6.60
11142;DHT22;5625;50.122;19.864;2024-03-07T12:51:01;3.00;10.20
11142;DHT22;5625;50.122;19.864;2024-03-07T12:53:31;3.10;10.80
11142;DHT22;5625;50.122;19.864;2024-03-07T12:56:02;3.10;24.00
11142;DHT22;5625;50.122;19.864;2024-03-07T12:58:30;3.20;28.10
11142;DHT22;5625;50.122;19.864;2024-03-07T13:00:59;3.20;1.00
11142;DHT22;5625;50.122;19.864;2024-03-07T13:03:28;3.20;1.00
11142;DHT22;5625;50.122;19.864;2024-03-07T13:05:59;3.20;1.00
11142;DHT22;5625;50.122;19.864;2024-03-07T13:08:29;3.30;1.00
11142;DHT22;5625;50.122;19.864;2024-03-07T13:10:58;3.30;1.00
11142;DHT22;5625;50.122;19.864;2024-03-07T13:13:28;3.30;1.00
11142;DHT22;5625;50.122;19.864;2024-03-07T13:15:57;3.40;1.00
11142;DHT22;5625;50.122;19.864;2024-03-07T13:18:26;3.40;1.00
11142;DHT22;5625;50.122;19.864;2024-03-07T13:20:54;3.50;1.00
11142;DHT22;5625;50.122;19.864;2024-03-07T13:23:24;3.50;1.00
11142;DHT22;5625;50.122;19.864;2024-03-07T13:25:55;3.50;1.00
11142;DHT22;5625;50.122;19.864;2024-03-07T13:28:24;3.60;1.00
11142;DHT22;5625;50.122;19.864;2024-03-07T13:30:55;3.60;1.00
11142;DHT22;5625;50.122;19.864;2024-03-07T13:33:23;3.70;1.00
11142;DHT22;5625;50.122;19.864;2024-03-07T13:35:52;3.70;99.90
11142;DHT22;5625;50.122;19.864;2024-03-07T13:38:21;3.70;99.90
11142;DHT22;5625;50.122;19.864;2024-03-07T13:40:50;3.80;99.90
11142;DHT22;5625;50.122;19.864;2024-03-07T13:43:19;3.80;99.90
11142;DHT22;5625;50.122;19.864;2024-03-07T13:45:48;3.80;69.00
11142;DHT22;5625;50.122;19.864;2024-03-07T13:48:16;3.90;1.00
11142;DHT22;5625;50.122;19.864;2024-03-07T13:50:46;3.90;99.90
11142;DHT22;5625;50.122;19.864;2024-03-07T13:53:27;4.00;99.90
11142;DHT22;5625;50.122;19.864;2024-03-07T13:56:31;4.00;99.90
11142;DHT22;5625;50.122;19.864;2024-03-07T13:59:30;4.00;99.90
11142;DHT22;5625;50.122;19.864;2024-03-07T14:02:14;4.10;99.90
11142;DHT22;5625;50.122;19.864;2024-03-07T14:08:13;4.20;99.90
11142;DHT22;5625;50.122;19.864;2024-03-07T14:11:26;4.20;1.00
11142;DHT22;5625;50.122;19.864;2024-03-07T14:14:20;4.30;99.90
11142;DHT22;5625;50.122;19.864;2024-03-07T14:17:26;4.30;88.60
11142;DHT22;5625;50.122;19.864;2024-03-07T14:23:18;4.50;1.00
11142;DHT22;5625;50.122;19.864;2024-03-07T14:29:03;4.50;87.50
11142;DHT22;5625;50.122;19.864;2024-03-07T14:31:39;4.50;99.90
11142;DHT22;5625;50.122;19.864;2024-03-07T14:34:14;4.50;1.00
11142;DHT22;5625;50.122;19.864;2024-03-07T14:36:47;4.50;1.00
11142;DHT22;5625;50.122;19.864;2024-03-07T14:39:18;4.60;99.90
11142;DHT22;5625;50.122;19.864;2024-03-07T14:41:51;4.60;99.90
11142;DHT22;5625;50.122;19.864;2024-03-07T14:44:22;4.60;99.90
11142;DHT22;5625;50.122;19.864;2024-03-07T14:46:54;4.60;37.10
11142;DHT22;5625;50.122;19.864;2024-03-07T14:49:25;4.50;99.90
11142;DHT22;5625;50.122;19.864;2024-03-07T14:51:54;4.50;99.90
11142;DHT22;5625;50.122;19.864;2024-03-07T14:54:27;4.50;99.90
11142;DHT22;5625;50.122;19.864;2024-03-07T14:56:56;4.50;99.90
11142;DHT22;5625;50.122;19.864;2024-03-07T14:59:26;4.50;99.90
11142;DHT22;5625;50.122;19.864;2024-03-07T15:01:54;4.50;78.40
11142;DHT22;5625;50.122;19.864;2024-03-07T15:04:27;4.40;99.90
11142;DHT22;5625;50.122;19.864;2024-03-07T15:06:58;4.50;16.80
11142;DHT22;5625;50.122;19.864;2024-03-07T15:09:30;4.40;1.00
11142;DHT22;5625;50.122;19.864;2024-03-07T15:12:01;4.40;1.00
11142;DHT22;5625;50.122;19.864;2024-03-07T15:14:32;4.40;64.90
11142;DHT22;5625;50.122;19.864;2024-03-07T15:17:06;4.40;24.80
11142;DHT22;5625;50.122;19.864;2024-03-07T15:19:35;4.40;99.90
11142;DHT22;5625;50.122;19.864;2024-03-07T15:22:03;4.40;99.90
11142;DHT22;5625;50.122;19.864;2024-03-07T15:24:32;4.40;1.00
11142;DHT22;5625;50.122;19.864;2024-03-07T15:27:04;4.40;99.90
11142;DHT22;5625;50.122;19.864;2024-03-07T15:29:34;4.40;99.90
11142;DHT22;5625;50.122;19.864;2024-03-07T15:32:04;4.40;99.90
11142;DHT22;5625;50.122;19.864;2024-03-07T15:34:36;4.40;99.90
11142;DHT22;5625;50.122;19.864;2024-03-07T15:37:04;4.40;99.90
11142;DHT22;5625;50.122;19.864;2024-03-07T15:39:34;4.30;99.90
11142;DHT22;5625;50.122;19.864;2024-03-07T15:42:05;4.30;99.90
11142;DHT22;5625;50.122;19.864;2024-03-07T15:44:38;4.30;99.90
11142;DHT22;5625;50.122;19.864;2024-03-07T15:47:10;4.30;99.90
11142;DHT22;5625;50.122;19.864;2024-03-07T15:49:38;4.20;99.90
11142;DHT22;5625;50.122;19.864;2024-03-07T15:52:08;4.20;1.00
11142;DHT22;5625;50.122;19.864;2024-03-07T15:54:40;4.20;99.90
11142;DHT22;5625;50.122;19.864;2024-03-07T15:57:09;4.20;77.50
11142;DHT22;5625;50.122;19.864;2024-03-07T15:59:43;4.20;99.90
11142;DHT22;5625;50.122;19.864;2024-03-07T16:02:12;4.20;99.90
11142;DHT22;5625;50.122;19.864;2024-03-07T16:04:41;4.20;99.90
11142;DHT22;5625;50.122;19.864;2024-03-07T16:07:10;4.20;1.00
11142;DHT22;5625;50.122;19.864;2024-03-07T16:09:38;4.20;1.00
11142;DHT22;5625;50.122;19.864;2024-03-07T16:12:06;4.20;99.90
11142;DHT22;5625;50.122;19.864;2024-03-07T16:14:36;4.20;1.00
11142;DHT22;5625;50.122;19.864;2024-03-07T16:17:06;4.20;1.00
11142;DHT22;5625;50.122;19.864;2024-03-07T16:19:35;4.20;2.30
11142;DHT22;5625;50.122;19.864;2024-03-07T16:22:03;4.10;48.60
11142;DHT22;5625;50.122;19.864;2024-03-07T16:24:32;4.10;99.90